sensor_id;sensor_type;location;lat;lon;timestamp;pressure;altitude;pressure_sealevel;temperature;humidity
64551;BME280;50945;44.472;-123.352;2022-09-01T00:01:17;100213.63;;;30.02;40.78
64551;BME280;50945;44.472;-123.352;2022-09-01T00:03:47;100210.91;;;29.97;41.30
64551;BME280;50945;44.472;-123.352;2022-09-01T00:06:15;100209.50;;;29.86;41.38
64551;BME280;50945;44.472;-123.352;2022-09-01T00:08:50;100202.97;;;29.76;41.66
64551;BME280;50945;44.472;-123.352;2022-09-01T00:11:17;100209.31;;;29.68;41.83
64551;BME280;50945;44.472;-123.352;2022-09-01T00:13:44;100211.84;;;29.56;42.15
64551;BME280;50945;44.472;-123.352;2022-09-01T00:16:10;100210.63;;;29.48;42.33
64551;BME280;50945;44.472;-123.352;2022-09-01T00:18:42;100205.72;;;29.40;42.01
64551;BME280;50945;44.472;-123.352;2022-09-01T00:21:12;100204.19;;;29.34;42.75
64551;BME280;50945;44.472;-123.352;2022-09-01T00:23:38;100209.91;;;29.15;42.93
64551;BME280;50945;44.472;-123.352;2022-09-01T00:26:05;100208.03;;;28.96;42.58
64551;BME280;50945;44.472;-123.352;2022-09-01T00:28:35;100206.88;;;28.84;43.18
64551;BME280;50945;44.472;-123.352;2022-09-01T00:31:03;100203.41;;;28.73;43.08
64551;BME280;50945;44.472;-123.352;2022-09-01T00:33:31;100214.34;;;28.60;43.39
64551;BME280;50945;44.472;-123.352;2022-09-01T00:35:58;100216.47;;;28.50;43.51
64551;BME280;50945;44.472;-123.352;2022-09-01T00:38:24;100218.06;;;28.37;43.81
64551;BME280;50945;44.472;-123.352;2022-09-01T00:40:51;100223.03;;;28.26;43.94
64551;BME280;50945;44.472;-123.352;2022-09-01T00:43:22;100221.63;;;28.10;44.20
64551;BME280;50945;44.472;-123.352;2022-09-01T00:45:49;100214.28;;;27.95;44.53
64551;BME280;50945;44.472;-123.352;2022-09-01T00:48:17;100224.81;;;27.84;44.33
64551;BME280;50945;44.472;-123.352;2022-09-01T00:50:45;100227.00;;;27.68;44.67
64551;BME280;50945;44.472;-123.352;2022-09-01T00:53:12;100226.38;;;27.52;44.71
64551;BME280;50945;44.472;-123.352;2022-09-01T00:55:39;100224.28;;;27.39;45.05
64551;BME280;50945;44.472;-123.352;2022-09-01T00:58:06;100216.91;;;27.24;45.19
64551;BME280;50945;44.472;-123.352;2022-09-01T01:00:35;100208.34;;;27.10;45.33
64551;BME280;50945;44.472;-123.352;2022-09-01T01:03:12;100208.47;;;27.00;45.34
64551;BME280;50945;44.472;-123.352;2022-09-01T01:05:43;100220.75;;;26.80;45.86
64551;BME280;50945;44.472;-123.352;2022-09-01T01:08:31;100209.69;;;26.64;46.75
64551;BME280;50945;44.472;-123.352;2022-09-01T01:11:03;100206.41;;;26.52;46.42
64551;BME280;50945;44.472;-123.352;2022-09-01T01:13:29;100217.72;;;26.42;46.55
64551;BME280;50945;44.472;-123.352;2022-09-01T01:16:02;100214.19;;;26.31;46.59
64551;BME280;50945;44.472;-123.352;2022-09-01T01:18:41;100208.44;;;26.17;46.79
64551;BME280;50945;44.472;-123.352;2022-09-01T01:21:14;100216.91;;;26.07;47.05
64551;BME280;50945;44.472;-123.352;2022-09-01T01:24:25;100220.34;;;25.93;47.76
64551;BME280;50945;44.472;-123.352;2022-09-01T01:26:50;100219.59;;;25.77;47.51
64551;BME280;50945;44.472;-123.352;2022-09-01T01:29:19;100223.31;;;25.68;47.60
64551;BME280;50945;44.472;-123.352;2022-09-01T01:31:46;100218.91;;;25.51;47.93
64551;BME280;50945;44.472;-123.352;2022-09-01T01:34:14;100225.38;;;25.41;48.32
64551;BME280;50945;44.472;-123.352;2022-09-01T01:36:43;100229.38;;;25.30;48.41
64551;BME280;50945;44.472;-123.352;2022-09-01T01:39:16;100224.63;;;25.15;48.89
64551;BME280;50945;44.472;-123.352;2022-09-01T01:41:44;100225.25;;;25.02;48.79
64551;BME280;50945;44.472;-123.352;2022-09-01T01:44:16;100227.22;;;24.91;48.94
64551;BME280;50945;44.472;-123.352;2022-09-01T01:46:47;100229.75;;;24.82;49.08
64551;BME280;50945;44.472;-123.352;2022-09-01T01:49:16;100227.53;;;24.64;49.55
64551;BME280;50945;44.472;-123.352;2022-09-01T01:51:46;100221.38;;;24.52;49.65
64551;BME280;50945;44.472;-123.352;2022-09-01T01:54:13;100214.69;;;24.37;49.90
64551;BME280;50945;44.472;-123.352;2022-09-01T01:56:40;100221.41;;;24.26;50.12
64551;BME280;50945;44.472;-123.352;2022-09-01T01:59:08;100222.53;;;24.15;50.36
64551;BME280;50945;44.472;-123.352;2022-09-01T02:01:36;100228.38;;;23.98;50.64
64551;BME280;50945;44.472;-123.352;2022-09-01T02:04:04;100222.22;;;23.85;50.86
64551;BME280;50945;44.472;-123.352;2022-09-01T02:06:33;100218.81;;;23.73;51.25
64551;BME280;50945;44.472;-123.352;2022-09-01T02:09:00;100219.34;;;23.60;51.18
64551;BME280;50945;44.472;-123.352;2022-09-01T02:11:29;100219.31;;;23.49;51.40
64551;BME280;50945;44.472;-123.352;2022-09-01T02:13:59;100219.81;;;23.36;51.69
64551;BME280;50945;44.472;-123.352;2022-09-01T02:16:30;100223.41;;;23.26;51.98
64551;BME280;50945;44.472;-123.352;2022-09-01T02:18:58;100220.03;;;23.19;52.00
64551;BME280;50945;44.472;-123.352;2022-09-01T02:21:26;100227.78;;;23.07;52.26
64551;BME280;50945;44.472;-123.352;2022-09-01T02:23:56;100221.00;;;22.97;52.33
64551;BME280;50945;44.472;-123.352;2022-09-01T02:26:36;100224.53;;;22.83;53.34
64551;BME280;50945;44.472;-123.352;2022-09-01T02:29:09;100217.50;;;22.70;53.11
64551;BME280;50945;44.472;-123.352;2022-09-01T02:31:43;100223.56;;;22.56;53.14
64551;BME280;50945;44.472;-123.352;2022-09-01T02:34:10;100224.31;;;22.47;53.30
64551;BME280;50945;44.472;-123.352;2022-09-01T02:36:44;100218.94;;;22.35;53.95
64551;BME280;50945;44.472;-123.352;2022-09-01T02:39:18;100223.22;;;22.20;53.80
64551;BME280;50945;44.472;-123.352;2022-09-01T02:41:45;100223.94;;;22.06;54.34
64551;BME280;50945;44.472;-123.352;2022-09-01T02:44:11;100231.34;;;21.95;54.27
64551;BME280;50945;44.472;-123.352;2022-09-01T02:46:43;100224.28;;;21.82;54.52
64551;BME280;50945;44.472;-123.352;2022-09-01T02:49:12;100224.41;;;21.70;55.08
64551;BME280;50945;44.472;-123.352;2022-09-01T02:51:50;100235.44;;;21.60;55.46
64551;BME280;50945;44.472;-123.352;2022-09-01T02:54:23;100229.69;;;21.44;55.28
64551;BME280;50945;44.472;-123.352;2022-09-01T02:56:51;100226.19;;;21.32;55.56
64551;BME280;50945;44.472;-123.352;2022-09-01T02:59:21;100230.47;;;21.18;56.17
64551;BME280;50945;44.472;-123.352;2022-09-01T03:01:49;100233.88;;;21.03;56.14
64551;BME280;50945;44.472;-123.352;2022-09-01T03:04:18;100237.28;;;20.88;56.44
64551;BME280;50945;44.472;-123.352;2022-09-01T03:06:45;100240.41;;;20.75;56.43
64551;BME280;50945;44.472;-123.352;2022-09-01T03:09:14;100236.53;;;20.59;56.94
64551;BME280;50945;44.472;-123.352;2022-09-01T03:11:44;100233.94;;;20.52;57.16
64551;BME280;50945;44.472;-123.352;2022-09-01T03:14:10;100231.59;;;20.44;57.08
64551;BME280;50945;44.472;-123.352;2022-09-01T03:16:37;100243.44;;;20.39;57.09
64551;BME280;50945;44.472;-123.352;2022-09-01T03:19:05;100243.63;;;20.32;57.70
64551;BME280;50945;44.472;-123.352;2022-09-01T03:21:38;100250.25;;;20.31;57.50
64551;BME280;50945;44.472;-123.352;2022-09-01T03:24:07;100251.34;;;20.30;57.42
64551;BME280;50945;44.472;-123.352;2022-09-01T03:26:35;100258.50;;;20.26;57.47
64551;BME280;50945;44.472;-123.352;2022-09-01T03:29:02;100262.28;;;20.20;57.95
64551;BME280;50945;44.472;-123.352;2022-09-01T03:31:29;100273.88;;;20.17;57.67
64551;BME280;50945;44.472;-123.352;2022-09-01T03:33:55;100272.09;;;20.11;58.04
64551;BME280;50945;44.472;-123.352;2022-09-01T03:36:23;100270.31;;;20.05;58.32
64551;BME280;50945;44.472;-123.352;2022-09-01T03:38:51;100275.78;;;20.00;58.13
64551;BME280;50945;44.472;-123.352;2022-09-01T03:41:23;100274.34;;;19.97;58.25
64551;BME280;50945;44.472;-123.352;2022-09-01T03:43:49;100277.28;;;19.90;59.07
64551;BME280;50945;44.472;-123.352;2022-09-01T03:46:20;100274.06;;;19.82;58.14
64551;BME280;50945;44.472;-123.352;2022-09-01T03:48:49;100281.44;;;19.76;58.27
64551;BME280;50945;44.472;-123.352;2022-09-01T03:51:17;100285.06;;;19.65;58.80
64551;BME280;50945;44.472;-123.352;2022-09-01T03:53:44;100281.50;;;19.52;58.87
64551;BME280;50945;44.472;-123.352;2022-09-01T03:56:11;100287.44;;;19.44;58.86
64551;BME280;50945;44.472;-123.352;2022-09-01T03:58:40;100287.94;;;19.29;59.42
64551;BME280;50945;44.472;-123.352;2022-09-01T04:01:12;100295.16;;;19.18;59.65
64551;BME280;50945;44.472;-123.352;2022-09-01T04:03:39;100288.69;;;19.13;59.65
64551;BME280;50945;44.472;-123.352;2022-09-01T04:06:08;100296.03;;;19.07;59.94
64551;BME280;50945;44.472;-123.352;2022-09-01T04:08:35;100295.56;;;18.98;60.13
64551;BME280;50945;44.472;-123.352;2022-09-01T04:11:09;100297.97;;;18.95;60.31
64551;BME280;50945;44.472;-123.352;2022-09-01T04:13:38;100300.38;;;18.91;60.35
64551;BME280;50945;44.472;-123.352;2022-09-01T04:16:14;100295.31;;;18.88;60.50
64551;BME280;50945;44.472;-123.352;2022-09-01T04:19:01;100306.91;;;18.85;60.36
64551;BME280;50945;44.472;-123.352;2022-09-01T04:21:44;100308.22;;;18.83;60.36
64551;BME280;50945;44.472;-123.352;2022-09-01T04:24:10;100318.66;;;18.80;60.68
64551;BME280;50945;44.472;-123.352;2022-09-01T04:26:40;100309.75;;;18.78;60.65
64551;BME280;50945;44.472;-123.352;2022-09-01T04:29:07;100328.31;;;18.78;60.57
64551;BME280;50945;44.472;-123.352;2022-09-01T04:31:37;100321.53;;;18.74;60.39
64551;BME280;50945;44.472;-123.352;2022-09-01T04:34:06;100308.44;;;18.69;60.60
64551;BME280;50945;44.472;-123.352;2022-09-01T04:36:43;100313.59;;;18.66;60.62
64551;BME280;50945;44.472;-123.352;2022-09-01T04:39:11;100319.25;;;18.59;61.70
64551;BME280;50945;44.472;-123.352;2022-09-01T04:41:43;100319.34;;;18.52;61.54
64551;BME280;50945;44.472;-123.352;2022-09-01T04:44:14;100323.19;;;18.39;60.97
64551;BME280;50945;44.472;-123.352;2022-09-01T04:46:44;100321.56;;;18.20;61.21
64551;BME280;50945;44.472;-123.352;2022-09-01T04:49:14;100319.25;;;18.05;61.44
64551;BME280;50945;44.472;-123.352;2022-09-01T04:51:47;100322.41;;;17.90;62.00
64551;BME280;50945;44.472;-123.352;2022-09-01T04:54:15;100334.09;;;17.74;62.03
64551;BME280;50945;44.472;-123.352;2022-09-01T04:56:44;100331.97;;;17.57;61.95
64551;BME280;50945;44.472;-123.352;2022-09-01T04:59:12;100327.91;;;17.41;62.33
64551;BME280;50945;44.472;-123.352;2022-09-01T05:01:39;100331.53;;;17.23;62.83
64551;BME280;50945;44.472;-123.352;2022-09-01T05:06:47;100339.31;;;16.89;63.24
64551;BME280;50945;44.472;-123.352;2022-09-01T05:09:19;100337.97;;;16.67;64.08
64551;BME280;50945;44.472;-123.352;2022-09-01T05:11:46;100340.00;;;16.53;64.66
64551;BME280;50945;44.472;-123.352;2022-09-01T05:14:14;100342.63;;;16.41;64.12
64551;BME280;50945;44.472;-123.352;2022-09-01T05:16:43;100354.56;;;16.35;63.80
64551;BME280;50945;44.472;-123.352;2022-09-01T05:19:10;100348.69;;;16.25;64.32
64551;BME280;50945;44.472;-123.352;2022-09-01T05:21:44;100346.81;;;16.19;64.81
64551;BME280;50945;44.472;-123.352;2022-09-01T05:24:13;100347.31;;;16.09;65.91
64551;BME280;50945;44.472;-123.352;2022-09-01T05:26:41;100345.44;;;16.03;64.66
64551;BME280;50945;44.472;-123.352;2022-09-01T05:29:09;100339.97;;;15.96;65.37
64551;BME280;50945;44.472;-123.352;2022-09-01T05:31:40;100345.69;;;15.94;65.16
64551;BME280;50945;44.472;-123.352;2022-09-01T05:34:06;100351.41;;;15.93;65.08
64551;BME280;50945;44.472;-123.352;2022-09-01T05:36:36;100354.84;;;15.88;65.20
64551;BME280;50945;44.472;-123.352;2022-09-01T05:39:05;100358.03;;;15.85;65.38
64551;BME280;50945;44.472;-123.352;2022-09-01T05:41:32;100359.31;;;15.83;65.35
64551;BME280;50945;44.472;-123.352;2022-09-01T05:44:02;100355.72;;;15.82;65.76
64551;BME280;50945;44.472;-123.352;2022-09-01T05:46:34;100352.13;;;15.82;65.47
64551;BME280;50945;44.472;-123.352;2022-09-01T05:49:02;100355.72;;;15.82;65.71
64551;BME280;50945;44.472;-123.352;2022-09-01T05:51:32;100358.88;;;15.86;65.16
64551;BME280;50945;44.472;-123.352;2022-09-01T05:54:02;100361.19;;;15.89;65.09
64551;BME280;50945;44.472;-123.352;2022-09-01T05:56:30;100354.38;;;15.91;64.90
64551;BME280;50945;44.472;-123.352;2022-09-01T05:58:59;100352.25;;;15.93;65.27
64551;BME280;50945;44.472;-123.352;2022-09-01T06:01:28;100357.34;;;15.96;65.23
64551;BME280;50945;44.472;-123.352;2022-09-01T06:04:00;100358.16;;;15.97;65.32
64551;BME280;50945;44.472;-123.352;2022-09-01T06:06:39;100354.16;;;16.00;65.54
64551;BME280;50945;44.472;-123.352;2022-09-01T06:09:07;100355.59;;;16.02;65.06
64551;BME280;50945;44.472;-123.352;2022-09-01T06:11:34;100350.75;;;16.04;64.85
64551;BME280;50945;44.472;-123.352;2022-09-01T06:14:00;100352.19;;;16.07;65.39
64551;BME280;50945;44.472;-123.352;2022-09-01T06:16:26;100356.88;;;16.06;64.76
64551;BME280;50945;44.472;-123.352;2022-09-01T06:18:55;100358.31;;;16.09;64.89
64551;BME280;50945;44.472;-123.352;2022-09-01T06:21:25;100358.09;;;16.10;65.09
64551;BME280;50945;44.472;-123.352;2022-09-01T06:23:55;100358.31;;;16.09;65.15
64551;BME280;50945;44.472;-123.352;2022-09-01T06:28:55;100348.81;;;16.05;65.05
64551;BME280;50945;44.472;-123.352;2022-09-01T06:31:24;100357.31;;;16.03;65.52
64551;BME280;50945;44.472;-123.352;2022-09-01T06:33:53;100354.97;;;16.00;65.65
64551;BME280;50945;44.472;-123.352;2022-09-01T06:36:21;100357.97;;;15.99;65.21
64551;BME280;50945;44.472;-123.352;2022-09-01T06:38:51;100353.13;;;15.94;65.56
64551;BME280;50945;44.472;-123.352;2022-09-01T06:41:21;100350.78;;;15.91;65.59
64551;BME280;50945;44.472;-123.352;2022-09-01T06:43:51;100347.84;;;15.86;65.86
64551;BME280;50945;44.472;-123.352;2022-09-01T06:46:21;100350.63;;;15.79;66.06
64551;BME280;50945;44.472;-123.352;2022-09-01T06:48:48;100352.78;;;15.77;65.64
64551;BME280;50945;44.472;-123.352;2022-09-01T06:51:18;100354.06;;;15.74;65.94
64551;BME280;50945;44.472;-123.352;2022-09-01T06:53:46;100355.91;;;15.74;65.95
64551;BME280;50945;44.472;-123.352;2022-09-01T06:56:18;100352.34;;;15.67;66.30
64551;BME280;50945;44.472;-123.352;2022-09-01T06:58:45;100357.50;;;15.56;66.18
64551;BME280;50945;44.472;-123.352;2022-09-01T07:01:15;100354.13;;;15.48;66.93
64551;BME280;50945;44.472;-123.352;2022-09-01T07:03:46;100361.56;;;15.40;67.09
64551;BME280;50945;44.472;-123.352;2022-09-01T07:06:14;100355.25;;;15.33;66.81
64551;BME280;50945;44.472;-123.352;2022-09-01T07:08:41;100350.59;;;15.27;67.08
64551;BME280;50945;44.472;-123.352;2022-09-01T07:11:24;100353.75;;;15.24;67.65
64551;BME280;50945;44.472;-123.352;2022-09-01T07:13:54;100363.09;;;15.23;66.82
64551;BME280;50945;44.472;-123.352;2022-09-01T07:16:24;100365.44;;;15.19;67.84
64551;BME280;50945;44.472;-123.352;2022-09-01T07:18:53;100364.59;;;15.12;66.92
64551;BME280;50945;44.472;-123.352;2022-09-01T07:21:26;100368.41;;;15.05;67.99
64551;BME280;50945;44.472;-123.352;2022-09-01T07:23:52;100372.66;;;15.00;67.91
64551;BME280;50945;44.472;-123.352;2022-09-01T07:26:20;100369.50;;;14.97;68.16
64551;BME280;50945;44.472;-123.352;2022-09-01T07:28:49;100367.56;;;14.97;67.87
64551;BME280;50945;44.472;-123.352;2022-09-01T07:31:20;100371.19;;;14.98;67.81
64551;BME280;50945;44.472;-123.352;2022-09-01T07:33:48;100369.28;;;14.92;72.95
64551;BME280;50945;44.472;-123.352;2022-09-01T07:36:17;100371.81;;;14.87;67.65
64551;BME280;50945;44.472;-123.352;2022-09-01T07:38:44;100372.47;;;14.82;67.73
64551;BME280;50945;44.472;-123.352;2022-09-01T07:41:11;100376.69;;;14.78;67.82
64551;BME280;50945;44.472;-123.352;2022-09-01T07:43:38;100384.31;;;14.76;68.00
64551;BME280;50945;44.472;-123.352;2022-09-01T07:46:07;100375.84;;;14.71;68.07
64551;BME280;50945;44.472;-123.352;2022-09-01T07:48:33;100383.25;;;14.70;68.85
64551;BME280;50945;44.472;-123.352;2022-09-01T07:51:00;100379.66;;;14.70;68.02
64551;BME280;50945;44.472;-123.352;2022-09-01T07:53:28;100383.66;;;14.67;68.08
64551;BME280;50945;44.472;-123.352;2022-09-01T07:55:58;100386.22;;;14.69;68.71
64551;BME280;50945;44.472;-123.352;2022-09-01T07:58:27;100393.00;;;14.73;68.40
64551;BME280;50945;44.472;-123.352;2022-09-01T08:00:54;100394.69;;;14.74;68.26
64551;BME280;50945;44.472;-123.352;2022-09-01T08:03:23;100383.69;;;14.74;68.03
64551;BME280;50945;44.472;-123.352;2022-09-01T08:05:50;100389.59;;;14.77;67.96
64551;BME280;50945;44.472;-123.352;2022-09-01T08:08:22;100387.50;;;14.79;67.88
64551;BME280;50945;44.472;-123.352;2022-09-01T08:10:49;100390.03;;;14.81;67.72
64551;BME280;50945;44.472;-123.352;2022-09-01T08:13:16;100389.00;;;14.82;67.69
64551;BME280;50945;44.472;-123.352;2022-09-01T08:15:43;100388.13;;;14.81;68.46
64551;BME280;50945;44.472;-123.352;2022-09-01T08:18:09;100393.63;;;14.81;68.02
64551;BME280;50945;44.472;-123.352;2022-09-01T08:20:39;100389.63;;;14.84;68.21
64551;BME280;50945;44.472;-123.352;2022-09-01T08:23:11;100392.78;;;14.88;68.13
64551;BME280;50945;44.472;-123.352;2022-09-01T08:25:40;100384.31;;;14.89;68.04
64551;BME280;50945;44.472;-123.352;2022-09-01T08:28:07;100385.38;;;14.88;67.77
64551;BME280;50945;44.472;-123.352;2022-09-01T08:30:34;100397.47;;;14.87;67.64
64551;BME280;50945;44.472;-123.352;2022-09-01T08:33:02;100396.59;;;14.87;67.94
64551;BME280;50945;44.472;-123.352;2022-09-01T08:35:29;100398.50;;;14.86;67.62
64551;BME280;50945;44.472;-123.352;2022-09-01T08:37:55;100400.63;;;14.84;70.94
64551;BME280;50945;44.472;-123.352;2022-09-01T08:40:22;100400.00;;;14.82;67.39
64551;BME280;50945;44.472;-123.352;2022-09-01T08:45:54;100400.41;;;14.79;68.97
64551;BME280;50945;44.472;-123.352;2022-09-01T08:48:44;100389.59;;;14.77;70.71
64551;BME280;50945;44.472;-123.352;2022-09-01T08:51:36;100386.03;;;14.77;70.39
64551;BME280;50945;44.472;-123.352;2022-09-01T08:56:55;100388.56;;;14.72;68.29
64551;BME280;50945;44.472;-123.352;2022-09-01T08:59:22;100393.84;;;14.67;68.31
64551;BME280;50945;44.472;-123.352;2022-09-01T09:09:58;100397.19;;;14.49;69.74
64551;BME280;50945;44.472;-123.352;2022-09-01T09:20:47;100410.69;;;14.37;69.36
64551;BME280;50945;44.472;-123.352;2022-09-01T09:23:33;100410.06;;;14.35;71.71
64551;BME280;50945;44.472;-123.352;2022-09-01T09:26:02;100408.59;;;14.32;69.59
64551;BME280;50945;44.472;-123.352;2022-09-01T09:28:28;100410.91;;;14.29;69.86
64551;BME280;50945;44.472;-123.352;2022-09-01T09:33:54;100408.09;;;14.15;70.23
64551;BME280;50945;44.472;-123.352;2022-09-01T09:36:29;100410.81;;;14.08;70.19
64551;BME280;50945;44.472;-123.352;2022-09-01T09:39:06;100406.16;;;14.02;70.96
64551;BME280;50945;44.472;-123.352;2022-09-01T09:41:34;100410.78;;;13.95;70.50
64551;BME280;50945;44.472;-123.352;2022-09-01T09:46:39;100399.53;;;13.83;71.20
64551;BME280;50945;44.472;-123.352;2022-09-01T09:49:31;100405.47;;;13.80;72.19
64551;BME280;50945;44.472;-123.352;2022-09-01T09:54:32;100411.16;;;13.79;70.95
64551;BME280;50945;44.472;-123.352;2022-09-01T09:59:47;100412.00;;;13.79;71.58
64551;BME280;50945;44.472;-123.352;2022-09-01T10:02:54;100407.97;;;13.82;71.17
64551;BME280;50945;44.472;-123.352;2022-09-01T10:05:40;100407.13;;;13.81;73.32
64551;BME280;50945;44.472;-123.352;2022-09-01T10:08:10;100403.56;;;13.81;71.17
64551;BME280;50945;44.472;-123.352;2022-09-01T10:10:40;100400.81;;;13.81;71.13
64551;BME280;50945;44.472;-123.352;2022-09-01T10:13:13;100409.03;;;13.81;71.12
64551;BME280;50945;44.472;-123.352;2022-09-01T10:15:41;100408.59;;;13.77;71.17
64551;BME280;50945;44.472;-123.352;2022-09-01T10:18:15;100411.75;;;13.74;71.63
64551;BME280;50945;44.472;-123.352;2022-09-01T10:20:52;100413.03;;;13.72;71.97
64551;BME280;50945;44.472;-123.352;2022-09-01T10:23:21;100425.25;;;13.69;71.59
64551;BME280;50945;44.472;-123.352;2022-09-01T10:25:53;100413.00;;;13.65;71.56
64551;BME280;50945;44.472;-123.352;2022-09-01T10:28:21;100416.13;;;13.62;71.42
64551;BME280;50945;44.472;-123.352;2022-09-01T10:30:51;100415.69;;;13.58;71.71
64551;BME280;50945;44.472;-123.352;2022-09-01T10:33:20;100414.84;;;13.58;71.74
64551;BME280;50945;44.472;-123.352;2022-09-01T10:35:53;100410.41;;;13.57;72.19
64551;BME280;50945;44.472;-123.352;2022-09-01T10:38:23;100415.25;;;13.55;71.52
64551;BME280;50945;44.472;-123.352;2022-09-01T10:40:52;100426.00;;;13.49;72.09
64551;BME280;50945;44.472;-123.352;2022-09-01T10:43:46;100417.50;;;13.44;71.96
64551;BME280;50945;44.472;-123.352;2022-09-01T10:48:43;100411.13;;;13.37;72.01
64551;BME280;50945;44.472;-123.352;2022-09-01T10:53:47;100409.38;;;13.29;72.16
64551;BME280;50945;44.472;-123.352;2022-09-01T11:07:29;100395.59;;;13.23;74.00
64551;BME280;50945;44.472;-123.352;2022-09-01T11:15:37;100400.00;;;13.17;73.46
64551;BME280;50945;44.472;-123.352;2022-09-01T11:18:09;100404.84;;;13.15;72.79
64551;BME280;50945;44.472;-123.352;2022-09-01T11:20:39;100398.72;;;13.13;72.29
64551;BME280;50945;44.472;-123.352;2022-09-01T11:23:27;100404.59;;;13.10;74.98
64551;BME280;50945;44.472;-123.352;2022-09-01T11:26:02;100405.19;;;13.05;72.90
64551;BME280;50945;44.472;-123.352;2022-09-01T11:28:44;100404.94;;;13.00;73.10
64551;BME280;50945;44.472;-123.352;2022-09-01T11:34:19;100395.41;;;12.96;75.98
64551;BME280;50945;44.472;-123.352;2022-09-01T11:36:54;100403.84;;;12.94;73.38
64551;BME280;50945;44.472;-123.352;2022-09-01T11:39:35;100399.41;;;12.93;73.52
64551;BME280;50945;44.472;-123.352;2022-09-01T11:42:44;100403.19;;;12.92;73.25
64551;BME280;50945;44.472;-123.352;2022-09-01T11:45:13;100397.06;;;12.90;73.13
64551;BME280;50945;44.472;-123.352;2022-09-01T11:47:44;100401.91;;;12.88;73.30
64551;BME280;50945;44.472;-123.352;2022-09-01T11:50:21;100410.34;;;12.87;73.35
64551;BME280;50945;44.472;-123.352;2022-09-01T11:52:57;100419.59;;;12.86;73.67
64551;BME280;50945;44.472;-123.352;2022-09-01T11:55:30;100419.59;;;12.86;73.41
64551;BME280;50945;44.472;-123.352;2022-09-01T11:57:57;100409.69;;;12.85;73.21
64551;BME280;50945;44.472;-123.352;2022-09-01T12:00:30;100415.16;;;12.85;72.92
64551;BME280;50945;44.472;-123.352;2022-09-01T12:02:57;100416.59;;;12.81;73.26
64551;BME280;50945;44.472;-123.352;2022-09-01T12:05:32;100415.94;;;12.79;73.26
64551;BME280;50945;44.472;-123.352;2022-09-01T12:08:02;100409.16;;;12.74;73.25
64551;BME280;50945;44.472;-123.352;2022-09-01T12:10:36;100411.06;;;12.74;73.33
64551;BME280;50945;44.472;-123.352;2022-09-01T12:13:08;100410.44;;;12.72;73.49
64551;BME280;50945;44.472;-123.352;2022-09-01T12:15:40;100412.50;;;12.70;73.36
64551;BME280;50945;44.472;-123.352;2022-09-01T12:20:50;100418.59;;;12.65;73.46
64551;BME280;50945;44.472;-123.352;2022-09-01T12:23:23;100411.59;;;12.63;73.70
64551;BME280;50945;44.472;-123.352;2022-09-01T12:26:25;100410.28;;;12.59;73.70
64551;BME280;50945;44.472;-123.352;2022-09-01T12:28:44;100414.88;;;12.51;73.42
64551;BME280;50945;44.472;-123.352;2022-09-01T12:31:22;100423.66;;;12.47;73.79
64551;BME280;50945;44.472;-123.352;2022-09-01T12:33:50;100420.09;;;12.46;73.68
64551;BME280;50945;44.472;-123.352;2022-09-01T12:36:28;100425.75;;;12.45;74.30
64551;BME280;50945;44.472;-123.352;2022-09-01T12:41:44;100423.63;;;12.40;73.71
64551;BME280;50945;44.472;-123.352;2022-09-01T12:49:45;100425.63;;;12.31;73.81
64551;BME280;50945;44.472;-123.352;2022-09-01T12:57:36;100426.22;;;12.27;74.66
64551;BME280;50945;44.472;-123.352;2022-09-01T13:02:46;100420.44;;;12.22;74.14
64551;BME280;50945;44.472;-123.352;2022-09-01T13:05:30;100422.53;;;12.20;75.04
64551;BME280;50945;44.472;-123.352;2022-09-01T13:08:00;100420.66;;;12.20;73.96
64551;BME280;50945;44.472;-123.352;2022-09-01T13:10:31;100425.09;;;12.21;74.00
64551;BME280;50945;44.472;-123.352;2022-09-01T13:12:59;100424.25;;;12.21;73.96
64551;BME280;50945;44.472;-123.352;2022-09-01T13:15:26;100428.03;;;12.20;73.79
64551;BME280;50945;44.472;-123.352;2022-09-01T13:17:52;100426.31;;;12.18;73.89
64551;BME280;50945;44.472;-123.352;2022-09-01T13:20:19;100420.19;;;12.16;73.72
64551;BME280;50945;44.472;-123.352;2022-09-01T13:22:45;100421.25;;;12.15;74.09
64551;BME280;50945;44.472;-123.352;2022-09-01T13:25:13;100416.78;;;12.14;74.05
64551;BME280;50945;44.472;-123.352;2022-09-01T13:27:40;100422.66;;;12.11;73.53
64551;BME280;50945;44.472;-123.352;2022-09-01T13:30:14;100435.06;;;12.07;73.42
64551;BME280;50945;44.472;-123.352;2022-09-01T13:32:42;100425.91;;;12.00;73.77
64551;BME280;50945;44.472;-123.352;2022-09-01T13:35:10;100428.84;;;11.98;74.16
64551;BME280;50945;44.472;-123.352;2022-09-01T13:37:37;100429.44;;;11.94;73.88
64551;BME280;50945;44.472;-123.352;2022-09-01T13:40:04;100435.28;;;11.91;73.83
64551;BME280;50945;44.472;-123.352;2022-09-01T13:42:33;100432.53;;;11.91;74.04
64551;BME280;50945;44.472;-123.352;2022-09-01T13:44:59;100439.91;;;11.90;73.96
64551;BME280;50945;44.472;-123.352;2022-09-01T13:47:26;100438.38;;;11.88;74.05
64551;BME280;50945;44.472;-123.352;2022-09-01T13:49:52;100439.59;;;11.85;79.47
64551;BME280;50945;44.472;-123.352;2022-09-01T13:52:18;100448.66;;;11.86;74.32
64551;BME280;50945;44.472;-123.352;2022-09-01T13:54:46;100453.97;;;11.87;74.29
64551;BME280;50945;44.472;-123.352;2022-09-01T13:57:12;100458.38;;;11.88;74.44
64551;BME280;50945;44.472;-123.352;2022-09-01T13:59:41;100456.50;;;11.89;74.10